Time;durP1;ratioP1;P1;durP2;ratioP2;P2;SDS_P1;SDS_P2;PMS_P1;PMS_P2;Temp;Humidity;BMP_temperature;BMP_pressure;BME280_temperature;BME280_humidity;BME280_pressure;Samples;Min_cycle;Max_cycle;Signal;HPM_P1;HPM_P2
2023/10/07 00:03:00;;;;;;;12.30;2.50;;;;;;;22.13;44.69;102035.97;4989460;28;20046;-60
2023/10/07 00:05:36;;;;;;;9.38;1.90;;;;;;;22.13;45.13;102028.63;4991591;28;20023;-60
2023/10/07 00:08:12;;;;;;;5.03;1.80;;;;;;;22.11;45.14;102036.13;4975247;28;20116;-60
2023/10/07 00:10:38;;;;;;;5.45;2.33;;;;;;;22.13;44.79;102038.69;4990313;28;20507;-60
2023/10/07 00:13:13;;;;;;;9.57;2.45;;;;;;;22.14;44.85;102024.03;4975182;28;20031;-61
2023/10/07 00:15:42;;;;;;;4.00;2.00;;;;;;;22.13;45.86;102030.50;4975064;28;20043;-60
2023/10/07 00:18:15;;;;;;;3.30;1.90;;;;;;;22.14;45.02;102030.31;4991122;28;20195;-60
2023/10/07 00:20:47;;;;;;;7.55;2.28;;;;;;;22.15;45.75;102031.16;4976555;28;20034;-60
2023/10/07 00:23:18;;;;;;;4.50;2.10;;;;;;;22.10;45.52;102026.25;4958451;28;20043;-61
2023/10/07 00:25:50;;;;;;;3.17;2.13;;;;;;;22.11;44.87;102036.13;4990649;28;20666;-61
2023/10/07 00:28:31;;;;;;;8.95;2.28;;;;;;;22.11;45.22;102032.56;4975836;28;20119;-61
2023/10/07 00:31:02;;;;;;;8.27;2.45;;;;;;;22.10;45.95;102023.53;4974353;28;20038;-61
2023/10/07 00:33:27;;;;;;;11.77;2.40;;;;;;;22.10;45.47;102009.88;4976049;28;20046;-61
2023/10/07 00:35:53;;;;;;;7.25;1.80;;;;;;;22.09;45.45;102005.44;4990880;28;20035;-60
2023/10/07 00:38:24;;;;;;;12.20;2.00;;;;;;;22.03;45.75;101987.88;4975928;28;20049;-61
2023/10/07 00:40:54;;;;;;;6.75;2.17;;;;;;;22.07;45.35;101993.00;4990475;28;20533;-62
2023/10/07 00:43:32;;;;;;;5.18;2.67;;;;;;;22.04;45.81;102003.25;4989104;28;20042;-61
2023/10/07 00:46:47;;;;;;;8.35;2.03;;;;;;;22.05;45.48;102013.09;4974696;28;20085;-61
2023/10/07 00:48:47;;;;;;;7.78;2.97;;;;;;;22.06;46.24;101989.41;4975132;28;20138;-61
2023/10/07 00:51:17;;;;;;;5.78;2.35;;;;;;;22.03;45.53;101990.59;4974665;28;20034;-61
2023/10/07 00:53:45;;;;;;;4.80;2.15;;;;;;;22.03;46.22;101989.75;4974494;28;20090;-61
2023/10/07 00:56:14;;;;;;;3.80;2.50;;;;;;;22.02;46.58;101993.53;4990311;28;20104;-61
2023/10/07 00:58:41;;;;;;;6.90;2.53;;;;;;;22.00;45.94;102004.59;4974295;28;20450;-61
2023/10/07 01:01:10;;;;;;;8.80;2.13;;;;;;;22.01;46.03;102010.91;4974288;28;20511;-61
2023/10/07 01:03:48;;;;;;;5.35;2.45;;;;;;;22.02;46.56;102004.44;4974325;28;20403;-61
2023/10/07 01:06:26;;;;;;;5.47;2.35;;;;;;;22.02;46.74;102004.44;4973667;28;20038;-60
2023/10/07 01:08:58;;;;;;;7.78;2.55;;;;;;;22.05;45.80;102012.28;4975390;28;20398;-60
2023/10/07 01:11:29;;;;;;;6.82;2.10;;;;;;;22.05;46.75;102004.91;4989508;28;20034;-61
2023/10/07 01:13:59;;;;;;;7.57;2.38;;;;;;;22.03;46.40;102006.13;4973919;28;20026;-61
2023/10/07 01:19:04;;;;;;;6.00;2.13;;;;;;;22.09;46.59;102001.84;4989503;28;20057;-61
2023/10/07 01:21:33;;;;;;;5.93;2.00;;;;;;;22.10;46.69;101996.22;4989429;28;20125;-61
2023/10/07 01:23:59;;;;;;;8.43;2.10;;;;;;;22.11;46.28;101980.72;4975231;28;20114;-61
2023/10/07 01:26:30;;;;;;;6.15;2.75;;;;;;;22.11;46.59;101981.53;4973981;28;20122;-60
2023/10/07 01:29:12;;;;;;;5.85;2.67;;;;;;;22.10;47.06;101968.94;4989400;28;20039;-61
2023/10/07 01:31:59;;;;;;;9.35;2.78;;;;;;;22.11;47.02;101972.53;4973809;28;20031;-61
2023/10/07 01:34:34;;;;;;;4.50;2.83;;;;;;;22.12;46.98;101968.75;4973599;28;20089;-61
2023/10/07 01:37:00;;;;;;;7.00;2.47;;;;;;;22.08;46.42;101976.47;4973667;28;20038;-61
2023/10/07 01:39:40;;;;;;;7.28;2.63;;;;;;;22.06;46.43;101973.03;4973809;28;20035;-60
2023/10/07 01:42:14;;;;;;;7.10;2.67;;;;;;;22.05;46.91;101972.16;4988319;28;20039;-61
2023/10/07 01:44:41;;;;;;;10.05;2.65;;;;;;;22.07;46.18;101980.19;4958195;28;20034;-61
2023/10/07 01:47:23;;;;;;;6.50;2.38;;;;;;;22.08;46.60;101979.19;4989746;28;20086;-61
2023/10/07 01:49:56;;;;;;;7.82;2.20;;;;;;;22.10;46.89;101984.44;4963948;28;20063;-61
2023/10/07 01:52:26;;;;;;;5.82;2.28;;;;;;;22.12;46.91;101996.91;4989447;28;20030;-61
2023/10/07 01:54:52;;;;;;;7.95;3.45;;;;;;;22.12;46.57;101993.31;4973756;28;20089;-61
2023/10/07 01:57:19;;;;;;;5.45;2.63;;;;;;;22.15;46.89;101987.50;4974738;28;20090;-61
2023/10/07 01:59:45;;;;;;;4.82;1.95;;;;;;;22.18;47.41;101981.69;4973564;28;20533;-61
2023/10/07 02:02:12;;;;;;;6.13;2.25;;;;;;;22.21;47.11;101982.19;4989652;28;20075;-61
2023/10/07 02:04:39;;;;;;;7.28;2.70;;;;;;;22.18;47.00;101966.16;4973280;28;20483;-60
2023/10/07 02:07:04;;;;;;;7.50;2.38;;;;;;;22.19;46.89;101970.59;4973145;28;20085;-61
2023/10/07 02:09:36;;;;;;;9.20;2.72;;;;;;;22.18;46.88;101968.91;4974405;28;20380;-61
2023/10/07 02:12:08;;;;;;;9.63;2.17;;;;;;;22.21;47.35;101971.28;4988479;28;20066;-61
2023/10/07 02:14:34;;;;;;;9.45;2.35;;;;;;;22.22;46.70;101972.97;4972875;28;20426;-60
2023/10/07 02:16:59;;;;;;;9.30;3.17;;;;;;;22.21;46.77;101976.75;4972988;28;20554;-60
2023/10/07 02:19:28;;;;;;;6.00;2.53;;;;;;;22.20;46.81;101977.75;4989050;28;20031;-61
2023/10/07 02:21:59;;;;;;;9.40;2.47;;;;;;;22.22;47.00;101977.59;4974170;28;20030;-61
2023/10/07 02:24:29;;;;;;;5.20;2.50;;;;;;;22.21;47.02;101965.81;4973040;28;20035;-61
2023/10/07 02:27:03;;;;;;;8.77;3.50;;;;;;;22.23;47.88;101979.28;4988724;28;20030;-61
2023/10/07 02:29:29;;;;;;;8.00;2.50;;;;;;;22.19;47.64;101977.94;4988865;28;20038;-61
2023/10/07 02:32:05;;;;;;;8.55;2.28;;;;;;;22.23;47.85;101979.28;4989185;28;20039;-60
2023/10/07 02:34:33;;;;;;;5.15;2.15;;;;;;;22.24;47.99;101998.22;4972637;28;20043;-61
2023/10/07 02:37:12;;;;;;;8.13;2.58;;;;;;;22.25;47.27;101991.72;4988931;28;20043;-62
2023/10/07 02:39:46;;;;;;;6.88;2.20;;;;;;;22.26;47.15;101987.97;4972750;28;20058;-61
2023/10/07 02:42:22;;;;;;;8.98;2.50;;;;;;;22.26;48.29;101984.38;4972795;28;20031;-60
2023/10/07 02:44:51;;;;;;;8.15;2.38;;;;;;;22.28;48.13;101988.63;4988405;28;20047;-61
2023/10/07 02:47:17;;;;;;;9.05;2.28;;;;;;;22.27;47.18;101981.50;4988677;28;20054;-61
2023/10/07 02:49:49;;;;;;;7.15;2.22;;;;;;;22.28;47.55;101985.09;4988494;28;20047;-61
2023/10/07 02:52:16;;;;;;;7.10;2.50;;;;;;;22.29;47.33;101992.22;4974513;28;20035;-61
2023/10/07 02:54:43;;;;;;;12.80;2.20;;;;;;;22.29;48.19;101984.88;4976840;28;20105;-60
2023/10/07 02:57:09;;;;;;;5.85;2.67;;;;;;;22.29;47.31;101990.34;4978873;28;20039;-66
2023/10/07 02:59:36;;;;;;;5.97;2.50;;;;;;;22.30;47.40;101986.59;4993949;28;20042;-60
2023/10/07 03:02:12;;;;;;;6.13;2.70;;;;;;;22.30;48.46;101997.53;4978207;28;20165;-60
2023/10/07 03:04:42;;;;;;;5.32;2.67;;;;;;;22.28;47.97;101983.19;4992054;28;20503;-61
2023/10/07 03:07:14;;;;;;;5.82;2.28;;;;;;;22.29;47.52;101973.97;4977978;28;20019;-60
2023/10/07 03:09:46;;;;;;;6.35;2.08;;;;;;;22.28;48.07;101979.63;4977726;28;20074;-60
2023/10/07 03:12:13;;;;;;;9.80;2.55;;;;;;;22.28;47.77;101985.91;4976255;28;20093;-60
2023/10/07 03:14:39;;;;;;;4.95;2.78;;;;;;;22.24;47.91;101965.47;4992413;28;20129;-60
2023/10/07 03:17:16;;;;;;;9.95;2.75;;;;;;;22.23;48.55;101963.75;4976214;28;20499;-59
2023/10/07 03:19:56;;;;;;;5.95;2.60;;;;;;;22.21;47.35;101965.81;4991051;28;20038;-61
2023/10/07 03:22:28;;;;;;;6.47;2.63;;;;;;;22.19;48.10;101967.88;4976117;28;20506;-60
2023/10/07 03:25:00;;;;;;;6.50;2.33;;;;;;;22.22;48.44;101983.06;4976177;28;20046;-60
2023/10/07 03:27:26;;;;;;;6.83;2.87;;;;;;;22.18;48.03;101981.69;4991665;28;20562;-61
2023/10/07 03:30:00;;;;;;;7.63;2.60;;;;;;;22.17;47.73;101991.75;4992256;28;20042;-60
2023/10/07 03:32:32;;;;;;;6.22;2.65;;;;;;;22.17;48.82;101989.03;4975912;28;20054;-59
2023/10/07 03:34:58;;;;;;;5.93;2.08;;;;;;;22.20;48.78;101991.41;4991696;28;20039;-59
2023/10/07 03:37:25;;;;;;;7.32;2.92;;;;;;;22.22;48.75;101992.06;4992102;28;20043;-60
2023/10/07 03:42:37;;;;;;;6.18;2.80;;;;;;;22.24;48.67;101986.44;4989784;28;20042;-59
2023/10/07 03:45:03;;;;;;;4.40;2.95;;;;;;;22.25;48.03;101988.16;4991831;28;20042;-60
2023/10/07 03:47:32;;;;;;;10.32;2.85;;;;;;;22.24;47.84;101990.03;4975967;28;20384;-60
2023/10/07 03:49:58;;;;;;;11.10;2.80;;;;;;;22.25;47.75;101982.69;4991332;28;20114;-61
2023/10/07 03:52:27;;;;;;;7.80;3.03;;;;;;;22.24;48.75;101981.00;4975407;28;20035;-60
2023/10/07 03:54:54;;;;;;;4.80;2.67;;;;;;;22.22;48.51;101983.06;4991448;28;20043;-59
2023/10/07 03:57:19;;;;;;;5.75;2.63;;;;;;;22.24;48.85;101981.00;4986091;28;20534;-60
2023/10/07 03:59:45;;;;;;;5.30;2.45;;;;;;;22.23;48.15;101977.41;4975555;28;20037;-62
2023/10/07 04:02:34;;;;;;;4.47;2.50;;;;;;;22.22;48.22;101983.06;4991933;28;20126;-62
2023/10/07 04:05:09;;;;;;;5.13;2.92;;;;;;;22.22;48.99;101972.97;4988434;28;20042;-62
2023/10/07 04:07:35;;;;;;;6.53;3.22;;;;;;;22.22;47.93;101972.97;4990855;28;20494;-62
2023/10/07 04:10:21;;;;;;;7.30;2.72;;;;;;;22.24;48.32;101957.28;4975758;28;20074;-61
2023/10/07 04:12:47;;;;;;;11.95;2.78;;;;;;;22.23;47.79;101966.47;4975148;28;20035;-62
2023/10/07 04:15:16;;;;;;;6.80;2.90;;;;;;;22.21;49.04;101954.91;4991472;28;20031;-62
2023/10/07 04:17:42;;;;;;;9.05;2.78;;;;;;;22.17;48.71;101948.06;4959406;28;20114;-60
2023/10/07 04:20:18;;;;;;;10.65;3.13;;;;;;;22.13;48.49;101945.88;4975121;28;20043;-60
2023/10/07 04:22:44;;;;;;;6.57;2.88;;;;;;;22.13;47.95;101949.47;4975092;28;20499;-61
2023/10/07 04:25:17;;;;;;;6.60;2.42;;;;;;;22.10;48.46;101944.38;4974914;28;20041;-61
2023/10/07 04:27:43;;;;;;;9.40;3.20;;;;;;;22.10;47.98;101941.63;4974906;28;20039;-60
2023/10/07 04:30:10;;;;;;;6.60;2.85;;;;;;;22.08;48.28;101932.78;4991060;28;20102;-61
2023/10/07 04:32:49;;;;;;;6.22;2.67;;;;;;;22.10;49.10;101935.31;4974804;28;20038;-60
2023/10/07 04:35:20;;;;;;;14.80;2.92;;;;;;;22.08;48.10;101927.31;4976038;28;20035;-62
2023/10/07 04:37:52;;;;;;;7.93;2.63;;;;;;;22.08;48.42;101938.25;4974809;28;20109;-62
2023/10/07 04:43:25;;;;;;;8.98;2.78;;;;;;;22.09;49.37;101939.06;4990893;28;20269;-60
2023/10/07 04:45:39;;;;;;;7.25;2.45;;;;;;;22.08;48.87;101932.78;4985077;28;20109;-60
2023/10/07 04:48:24;;;;;;;6.90;2.70;;;;;;;22.08;49.38;101938.25;4974442;28;20125;-61
2023/10/07 04:51:07;;;;;;;5.65;2.65;;;;;;;22.08;49.02;101923.75;4974638;28;20039;-60
2023/10/07 04:53:39;;;;;;;11.88;3.30;;;;;;;22.05;48.58;101916.75;4988770;28;20054;-61
2023/10/07 04:56:09;;;;;;;8.82;3.05;;;;;;;22.06;49.45;101918.44;4989858;28;20061;-60
2023/10/07 04:58:34;;;;;;;6.05;2.55;;;;;;;22.04;49.51;101925.97;4990504;28;20034;-60
2023/10/07 05:01:07;;;;;;;6.25;2.40;;;;;;;22.06;48.91;101923.91;4990552;28;20031;-60
2023/10/07 05:03:33;;;;;;;11.65;2.97;;;;;;;22.02;49.65;101912.50;4975653;28;20038;-60
2023/10/07 05:06:00;;;;;;;7.20;2.58;;;;;;;22.06;49.23;101918.44;4990418;28;20027;-59
2023/10/07 05:08:27;;;;;;;7.88;3.33;;;;;;;22.09;49.02;101926.28;4974606;28;20402;-60
2023/10/07 05:10:54;;;;;;;6.80;2.08;;;;;;;22.07;49.16;101941.13;4974225;28;20031;-60
2023/10/07 05:13:20;;;;;;;9.20;2.50;;;;;;;22.08;49.63;101940.13;4990431;28;20078;-60
2023/10/07 05:15:46;;;;;;;9.82;3.08;;;;;;;22.10;49.65;101936.19;4957353;28;20436;-62
2023/10/07 05:18:12;;;;;;;7.25;2.88;;;;;;;22.14;49.61;101947.59;4974075;28;20084;-60
2023/10/07 05:20:42;;;;;;;4.03;2.50;;;;;;;22.15;49.66;101943.81;4974231;28;20398;-62
2023/10/07 05:23:14;;;;;;;10.52;3.17;;;;;;;22.15;48.83;101935.63;4973935;28;20403;-62
2023/10/07 05:25:48;;;;;;;5.93;2.58;;;;;;;22.16;48.70;101932.75;4975237;28;20050;-61
2023/10/07 05:28:17;;;;;;;8.30;2.95;;;;;;;22.17;48.81;101931.69;4989920;28;20406;-60
2023/10/07 05:30:54;;;;;;;8.27;3.42;;;;;;;22.19;49.72;101932.41;4989580;28;20062;-60
2023/10/07 05:33:24;;;;;;;6.57;2.30;;;;;;;22.19;49.91;101951.50;4989849;28;20039;-60
2023/10/07 05:35:50;;;;;;;7.78;2.58;;;;;;;22.21;48.75;101949.44;4973639;28;20042;-60
2023/10/07 05:38:18;;;;;;;6.18;2.65;;;;;;;22.19;49.43;101946.03;4989905;28;20038;-61
2023/10/07 05:40:43;;;;;;;8.32;2.78;;;;;;;22.18;49.49;101938.00;4974969;28;20122;-61
2023/10/07 05:43:09;;;;;;;5.70;2.65;;;;;;;22.20;48.97;101942.25;4973604;28;20045;-60
2023/10/07 05:45:35;;;;;;;4.47;2.28;;;;;;;22.18;48.70;101944.31;4989526;28;20121;-60
2023/10/07 05:48:02;;;;;;;6.00;3.25;;;;;;;22.23;49.95;101952.84;4973546;28;20565;-61
2023/10/07 05:50:28;;;;;;;6.35;2.15;;;;;;;22.23;49.38;101958.28;4989374;28;20101;-60
2023/10/07 05:52:55;;;;;;;4.63;2.67;;;;;;;22.27;49.00;101954.19;4973670;28;20035;-61
2023/10/07 05:55:22;;;;;;;8.35;3.28;;;;;;;22.31;48.84;101951.94;4988606;28;20039;-60
2023/10/07 05:57:48;;;;;;;4.75;2.40;;;;;;;22.34;49.79;101955.16;4974735;28;20392;-60
2023/10/07 06:00:17;;;;;;;6.55;3.00;;;;;;;22.36;48.76;101963.19;4989903;28;20553;-61
2023/10/07 06:02:43;;;;;;;7.93;2.67;;;;;;;22.37;49.84;101959.41;4973551;28;20122;-59
2023/10/07 06:05:12;;;;;;;9.75;2.80;;;;;;;22.36;49.55;101963.19;4988774;28;20078;-60
2023/10/07 06:07:41;;;;;;;7.75;2.97;;;;;;;22.39;49.08;101974.59;4973251;28;20122;-60
2023/10/07 06:10:11;;;;;;;5.68;2.67;;;;;;;22.41;48.96;101974.44;4989521;28;20526;-61
2023/10/07 06:12:37;;;;;;;7.10;3.10;;;;;;;22.41;49.60;101974.44;4988738;28;20039;-61
2023/10/07 06:15:08;;;;;;;8.40;2.67;;;;;;;22.43;49.59;101981.41;4989107;28;20426;-61
2023/10/07 06:17:33;;;;;;;7.82;2.78;;;;;;;22.44;50.00;101977.66;4988363;28;20035;-60
2023/10/07 06:19:59;;;;;;;8.15;2.47;;;;;;;22.44;50.12;101966.75;4989138;28;20522;-61
2023/10/07 06:22:24;;;;;;;3.85;2.33;;;;;;;22.46;50.06;101972.88;4972838;28;20407;-60
2023/10/07 06:24:55;;;;;;;10.75;3.00;;;;;;;22.45;50.15;101978.50;4973125;28;20055;-60
2023/10/07 06:27:21;;;;;;;4.63;2.42;;;;;;;22.47;49.10;101982.75;4988591;28;20089;-61
2023/10/07 06:29:48;;;;;;;9.23;2.92;;;;;;;22.48;49.76;101976.25;4974636;28;20038;-61
2023/10/07 06:32:23;;;;;;;6.78;2.85;;;;;;;22.49;49.14;101977.13;4972964;28;20462;-60
2023/10/07 06:34:54;;;;;;;8.90;3.08;;;;;;;22.51;48.86;101983.25;4973881;28;20043;-60
2023/10/07 06:37:29;;;;;;;8.15;2.72;;;;;;;22.51;49.52;101973.16;4972759;28;20031;-60
2023/10/07 06:39:58;;;;;;;5.03;2.50;;;;;;;22.52;49.51;101984.97;4973984;28;20111;-61
2023/10/07 06:42:24;;;;;;;8.57;3.00;;;;;;;22.59;49.78;101988.66;4973987;28;20106;-61
2023/10/07 06:44:54;;;;;;;7.38;3.08;;;;;;;22.62;49.24;101980.97;4972837;28;20031;-60
2023/10/07 06:47:21;;;;;;;6.65;2.65;;;;;;;22.69;50.03;101991.22;4972656;28;20062;-60
2023/10/07 06:49:47;;;;;;;9.43;2.92;;;;;;;22.74;49.39;101994.25;4973731;28;20046;-60
2023/10/07 06:52:12;;;;;;;8.68;3.17;;;;;;;22.76;49.06;101987.56;4972625;28;20035;-60
2023/10/07 06:54:39;;;;;;;8.00;3.28;;;;;;;22.78;49.65;101984.66;4988701;28;20365;-62
2023/10/07 06:57:10;;;;;;;9.45;3.42;;;;;;;22.79;48.77;101991.81;4988604;28;20031;-62
2023/10/07 06:59:45;;;;;;;6.07;2.83;;;;;;;22.76;49.81;102003.09;4988237;28;20061;-62
2023/10/07 07:02:17;;;;;;;4.75;2.40;;;;;;;22.77;49.93;102000.22;4988234;28;20092;-63
2023/10/07 07:04:43;;;;;;;7.05;2.40;;;;;;;22.77;49.78;102005.66;4972592;28;20060;-62
2023/10/07 07:07:13;;;;;;;9.57;2.53;;;;;;;22.79;49.37;102008.22;4973998;28;20062;-63
2023/10/07 07:12:12;;;;;;;;;;;;;;;22.80;49.08;102004.47;4988436;28;20529;-62
2023/10/07 07:14:46;;;;;;;5.70;2.40;;;;;;;22.81;49.79;102008.91;4972464;28;19925;-62
2023/10/07 07:17:35;;;;;;;4.38;2.30;;;;;;;22.81;49.78;102014.38;4988316;28;20396;-61
2023/10/07 07:22:42;;;;;;;7.82;2.47;;;;;;;22.81;49.99;102026.13;4988504;28;20510;-62
2023/10/07 07:25:12;;;;;;;6.97;2.10;;;;;;;22.86;49.95;102028.34;4972406;28;20031;-62
2023/10/07 07:27:50;;;;;;;7.78;2.15;;;;;;;22.87;49.30;102016.34;4988254;28;20038;-62
2023/10/07 07:30:31;;;;;;;4.57;2.42;;;;;;;22.88;49.31;102016.19;4987526;28;20035;-62
2023/10/07 07:33:11;;;;;;;6.68;2.63;;;;;;;22.89;49.61;102020.59;4971987;28;20503;-61
2023/10/07 07:35:40;;;;;;;6.25;2.40;;;;;;;22.90;49.01;102021.47;4972068;28;20046;-62
2023/10/07 07:38:29;;;;;;;4.68;2.45;;;;;;;22.91;49.04;102015.84;4973727;28;20034;-62
2023/10/07 07:41:26;;;;;;;9.05;2.20;;;;;;;22.96;49.41;102010.66;4977022;28;20086;-62
2023/10/07 07:43:47;;;;;;;8.20;3.22;;;;;;;22.98;48.91;102013.22;4989002;28;20562;-61
2023/10/07 07:46:51;;;;;;;8.25;3.08;;;;;;;22.97;49.54;101995.97;4992080;28;20123;-62
2023/10/07 07:49:19;;;;;;;11.57;3.15;;;;;;;23.04;48.88;102012.50;4987086;28;20066;-62
2023/10/07 07:51:47;;;;;;;8.05;2.85;;;;;;;23.07;49.69;102012.97;4991856;28;20066;-62
2023/10/07 07:54:14;;;;;;;9.60;2.20;;;;;;;23.10;50.21;102007.16;4991446;28;20396;-62
2023/10/07 07:56:42;;;;;;;9.10;3.88;;;;;;;23.12;49.17;102010.56;4991926;28;20039;-62
2023/10/07 07:59:13;;;;;;;4.35;2.30;;;;;;;23.14;49.39;102003.00;4991661;28;20050;-62
2023/10/07 08:02:01;;;;;;;5.53;2.90;;;;;;;23.20;48.91;102009.63;4975501;28;20038;-62
2023/10/07 08:04:42;;;;;;;3.72;2.22;;;;;;;23.28;48.81;102020.53;4991297;28;20111;-62
2023/10/07 08:10:03;;;;;;;8.90;2.78;;;;;;;23.46;48.79;102039.38;4983551;28;20399;-62
2023/10/07 08:12:31;;;;;;;10.27;4.20;;;;;;;23.57;48.47;102047.13;4991371;28;20041;-62
2023/10/07 08:15:05;;;;;;;8.43;2.58;;;;;;;23.66;48.81;102033.22;4975418;28;20035;-62
2023/10/07 08:17:30;;;;;;;4.65;2.63;;;;;;;24.03;48.05;102042.44;4990866;28;20042;-62
2023/10/07 08:19:57;;;;;;;8.35;2.80;;;;;;;24.50;48.18;102048.41;4991455;28;20035;-62
2023/10/07 08:22:23;;;;;;;6.53;2.53;;;;;;;24.95;47.63;102060.19;4976447;28;20109;-62
2023/10/07 08:24:49;;;;;;;9.15;2.53;;;;;;;25.35;46.83;102045.81;4975194;28;20479;-62
2023/10/07 08:30:09;;;;;;;6.45;2.10;;;;;;;26.14;46.61;102047.38;4975271;28;20046;-62
2023/10/07 08:32:37;;;;;;;5.05;2.05;;;;;;;26.49;45.95;102035.31;4976409;28;20042;-62
2023/10/07 08:35:14;;;;;;;9.52;2.30;;;;;;;26.80;45.84;102025.78;4975210;28;20102;-62
2023/10/07 08:37:45;;;;;;;7.32;2.60;;;;;;;27.06;45.28;102026.69;4976355;28;20042;-62
2023/10/07 08:40:14;;;;;;;8.73;2.78;;;;;;;27.34;44.96;102017.41;4975024;28;20466;-62
2023/10/07 08:42:45;;;;;;;3.55;2.20;;;;;;;27.55;44.45;102017.25;4990771;28;20470;-62
2023/10/07 08:45:14;;;;;;;8.75;2.10;;;;;;;27.78;44.13;102020.41;4974791;28;20034;-62
2023/10/07 08:47:52;;;;;;;5.97;2.20;;;;;;;28.01;43.53;102025.47;4974687;28;20035;-62
2023/10/07 08:50:19;;;;;;;9.38;2.38;;;;;;;28.24;43.54;102032.25;4974309;28;20063;-62
2023/10/07 08:52:45;;;;;;;6.38;2.08;;;;;;;28.44;43.34;102031.34;4974693;28;20023;-61
2023/10/07 08:55:10;;;;;;;10.30;3.05;;;;;;;28.63;43.54;102030.44;4990669;28;20031;-63
2023/10/07 08:57:40;;;;;;;5.07;2.42;;;;;;;28.79;42.21;102024.41;4976117;28;20163;-61
2023/10/07 09:00:14;;;;;;;4.70;1.98;;;;;;;28.89;41.88;102016.53;4991168;28;20039;-62
2023/10/07 09:02:40;;;;;;;7.55;2.20;;;;;;;29.02;42.13;102013.69;4990166;28;20551;-60
2023/10/07 09:05:19;;;;;;;6.60;2.70;;;;;;;29.21;42.54;102023.75;4976071;28;20031;-64
2023/10/07 09:07:48;;;;;;;4.57;2.35;;;;;;;29.42;41.63;102023.41;4976015;28;20090;-61
2023/10/07 09:10:15;;;;;;;6.03;2.25;;;;;;;29.59;41.70;102015.44;4974963;28;20106;-62
2023/10/07 09:12:56;;;;;;;5.50;2.08;;;;;;;29.76;41.59;102007.41;4974939;28;20035;-61
2023/10/07 09:15:29;;;;;;;5.70;2.20;;;;;;;29.96;40.90;102008.06;4991198;28;20093;-61
2023/10/07 09:18:03;;;;;;;6.55;2.35;;;;;;;30.37;40.67;101999.16;4974128;28;20384;-61
2023/10/07 09:20:31;;;;;;;9.75;2.40;;;;;;;31.04;40.17;102009.13;4973983;28;20506;-63
2023/10/07 09:23:01;;;;;;;3.97;2.13;;;;;;;32.71;37.46;101998.22;4974146;28;20046;-63
2023/10/07 09:25:31;;;;;;;6.78;2.13;;;;;;;33.32;36.81;101988.25;4990087;28;20031;-63
2023/10/07 09:27:58;;;;;;;7.13;2.10;;;;;;;32.95;37.01;101981.44;4990137;28;20039;-63
2023/10/07 09:33:18;;;;;;;4.30;2.08;;;;;;;32.93;37.55;101980.84;4974161;28;20384;-62
2023/10/07 09:35:49;;;;;;;3.40;1.70;;;;;;;33.06;37.52;101975.00;4975195;28;20035;-62
2023/10/07 09:38:33;;;;;;;5.18;2.00;;;;;;;33.26;36.87;101980.91;4972621;28;20089;-62
2023/10/07 09:41:12;;;;;;;5.88;2.08;;;;;;;33.43;36.55;101976.22;4987348;28;20552;-62
2023/10/07 09:43:43;;;;;;;4.60;2.22;;;;;;;33.66;36.45;101987.19;4973617;28;22540;-62
2023/10/07 09:46:10;;;;;;;7.70;2.83;;;;;;;33.92;36.31;101975.34;4990162;28;20049;-61
2023/10/07 09:48:41;;;;;;;6.18;2.40;;;;;;;34.14;35.13;101978.19;4974557;28;20525;-63
2023/10/07 09:51:15;;;;;;;3.72;2.08;;;;;;;34.34;35.27;101977.63;4974647;28;20073;-63
2023/10/07 09:53:51;;;;;;;4.78;1.70;;;;;;;34.59;34.66;101969.63;4988414;28;20037;-61
2023/10/07 09:56:33;;;;;;;7.55;2.13;;;;;;;34.72;35.08;101971.13;4974537;28;20045;-64
2023/10/07 09:59:15;;;;;;;4.53;2.10;;;;;;;34.89;34.98;101972.72;4974754;28;20170;-63
2023/10/07 10:02:16;;;;;;;5.53;1.92;;;;;;;35.07;33.62;101966.78;4988872;28;20035;-62
2023/10/07 10:04:51;;;;;;;4.40;2.70;;;;;;;35.30;34.00;101975.91;4973344;28;20035;-63
2023/10/07 10:07:39;;;;;;;5.45;2.20;;;;;;;35.41;33.42;101983.25;4973157;28;20507;-63
2023/10/07 10:10:06;;;;;;;7.05;2.42;;;;;;;35.55;33.66;101978.94;4974136;28;20537;-62
2023/10/07 10:13:28;;;;;;;7.00;1.83;;;;;;;35.68;32.93;101984.03;4957355;28;20031;-64
2023/10/07 10:18:06;;;;;;;5.63;2.13;;;;;;;35.88;32.68;101983.34;4989243;28;20522;-63
2023/10/07 10:20:45;;;;;;;5.35;2.15;;;;;;;36.07;32.46;101976.25;4973327;28;20046;-62
2023/10/07 10:23:21;;;;;;;4.65;1.80;;;;;;;36.22;32.71;101977.16;4973219;28;20053;-63
2023/10/07 10:25:51;;;;;;;6.50;2.13;;;;;;;36.38;32.08;101978.06;4973216;28;20130;-64
2023/10/07 10:28:27;;;;;;;4.07;1.80;;;;;;;36.55;31.70;101963.91;4974526;28;20434;-61
2023/10/07 10:30:53;;;;;;;5.30;2.13;;;;;;;36.69;32.00;101962.28;4973179;28;20031;-62
2023/10/07 10:33:25;;;;;;;3.60;1.80;;;;;;;36.83;31.86;101959.78;4973021;28;20372;-63
2023/10/07 10:35:57;;;;;;;9.13;1.98;;;;;;;36.90;31.88;101951.97;4989665;28;20090;-62
2023/10/07 10:38:37;;;;;;;;;;;;;;;37.03;31.69;101957.91;4974050;28;20031;-62
2023/10/07 10:41:04;;;;;;;5.90;2.20;;;;;;;37.06;31.86;101960.13;4974514;28;19914;-62
2023/10/07 10:43:31;;;;;;;5.28;1.85;;;;;;;37.17;30.74;101963.78;4973273;28;20411;-62
2023/10/07 10:46:07;;;;;;;5.50;1.83;;;;;;;37.20;30.85;101961.25;4973409;28;20071;-63
2023/10/07 10:48:41;;;;;;;3.85;1.92;;;;;;;37.30;30.59;101958.47;4972603;28;20809;-65
2023/10/07 10:51:07;;;;;;;3.40;1.77;;;;;;;37.30;31.08;101952.88;4973293;28;20023;-62
2023/10/07 10:53:40;;;;;;;3.58;1.63;;;;;;;37.47;31.11;101974.16;4973429;28;20495;-62
2023/10/07 10:56:07;;;;;;;4.53;1.70;;;;;;;37.53;30.59;101950.63;4957176;28;20058;-61
2023/10/07 10:58:36;;;;;;;4.78;2.15;;;;;;;37.54;30.74;101964.38;4974793;28;20045;-61
2023/10/07 11:01:02;;;;;;;3.85;1.80;;;;;;;37.58;30.08;101961.84;4973262;28;20030;-61
2023/10/07 11:03:30;;;;;;;5.75;1.95;;;;;;;37.60;30.60;101959.59;4973564;28;20035;-63
2023/10/07 11:05:58;;;;;;;5.93;2.20;;;;;;;37.52;29.73;101960.16;4972952;28;20113;-63
2023/10/07 11:08:25;;;;;;;5.07;1.40;;;;;;;37.45;29.56;101954.00;4956819;28;20043;-61
2023/10/07 11:10:52;;;;;;;4.63;1.98;;;;;;;37.47;30.04;101960.19;4988679;28;20034;-62
2023/10/07 11:13:17;;;;;;;3.17;1.85;;;;;;;37.39;29.73;101960.69;4989429;28;20556;-62
2023/10/07 11:16:10;;;;;;;4.18;1.85;;;;;;;37.37;30.25;101962.94;4992537;28;20031;-62
2023/10/07 11:18:38;;;;;;;4.80;1.90;;;;;;;37.33;29.83;101952.31;4976227;28;20099;-62
2023/10/07 11:21:10;;;;;;;3.35;1.90;;;;;;;37.32;29.80;101956.25;4977678;28;20117;-63
2023/10/07 11:23:50;;;;;;;3.45;1.60;;;;;;;37.33;30.25;101946.72;4991412;28;20129;-63
2023/10/07 11:26:17;;;;;;;7.28;1.83;;;;;;;37.36;29.53;101944.50;4975921;28;20046;-63
2023/10/07 11:28:43;;;;;;;3.55;1.67;;;;;;;37.43;29.84;101953.47;4992223;28;20046;-63
2023/10/07 11:31:08;;;;;;;6.10;2.13;;;;;;;37.56;30.17;101952.88;4977342;28;20439;-63
2023/10/07 11:33:34;;;;;;;4.40;1.92;;;;;;;37.56;29.34;101945.31;4975951;28;20097;-63
2023/10/07 11:36:02;;;;;;;8.88;1.85;;;;;;;37.51;29.96;101947.28;4977169;28;20039;-63
2023/10/07 11:38:28;;;;;;;6.05;1.90;;;;;;;37.51;29.81;101952.88;4975925;28;20446;-63
2023/10/07 11:40:55;;;;;;;7.30;2.10;;;;;;;37.56;30.27;101945.31;4991982;28;20089;-62
2023/10/07 11:43:21;;;;;;;6.13;2.20;;;;;;;37.66;29.55;101944.50;4991715;28;20444;-63
2023/10/07 11:45:47;;;;;;;4.00;1.55;;;;;;;37.73;29.59;101950.59;4991937;28;20066;-62
2023/10/07 11:48:12;;;;;;;3.50;1.50;;;;;;;37.79;29.43;101943.88;4975448;28;20101;-61
2023/10/07 11:50:39;;;;;;;6.60;1.80;;;;;;;37.87;29.35;101946.09;4975351;28;20086;-62
2023/10/07 11:53:06;;;;;;;4.63;2.20;;;;;;;37.94;29.56;101952.28;4959418;28;20063;-62
2023/10/07 11:55:32;;;;;;;4.40;2.03;;;;;;;37.93;29.71;101950.59;4959557;28;20053;-64
2023/10/07 11:58:01;;;;;;;4.45;1.80;;;;;;;37.88;28.61;101954.25;4975336;28;20051;-62
2023/10/07 12:00:31;;;;;;;4.05;2.22;;;;;;;37.86;29.43;101950.84;4991568;28;20118;-64
2023/10/07 12:02:57;;;;;;;4.22;1.85;;;;;;;37.78;29.05;101937.44;4976660;28;20423;-65
2023/10/07 12:05:27;;;;;;;2.90;1.73;;;;;;;37.70;29.11;101939.97;4975389;28;20030;-62
2023/10/07 12:07:59;;;;;;;4.15;1.55;;;;;;;37.63;28.91;101940.28;4991520;28;20034;-64